Terminal Aerodrome Forecast
Issued by NWS

Home | Current Version | Previous Version | Graphics & Text | Print | Product List | Glossary On
Versions: 1 2 3 4 5 6 7 8 9 10 11 12 13 14 15 16 17
000
FTUS43 KICT 011500 AAA
TAFCNU
TAF AMD
KCNU 011503Z 0115/0212 10012KT P6SM SCT025 OVC050
     FM011600 15008KT P6SM SCT050 BKN150
     FM012200 15012KT P6SM VCTS BKN050CB=

USA.gov is the U.S. government's official web portal to all federal, state and local government web resources and services.